Time;durP1;ratioP1;P1;durP2;ratioP2;P2;SDS_P1;SDS_P2;PMS_P1;PMS_P2;Temp;Humidity;BMP_temperature;BMP_pressure;BME280_temperature;BME280_humidity;BME280_pressure;Samples;Min_cycle;Max_cycle;Signal;HPM_P1;HPM_P2
2022/07/31 00:00:06;;;;;;;3.00;2.70;;;15.00;99.90;16.30;96814.00;;;;5091591;28;20191;-88
2022/07/31 00:02:56;;;;;;;2.80;2.57;;;15.00;99.90;16.40;96811.00;;;;5090164;28;20211;-89
2022/07/31 00:05:45;;;;;;;2.80;2.60;;;15.00;99.90;16.10;96803.00;;;;5083248;28;20195;-88
2022/07/31 00:08:34;;;;;;;4.23;3.23;;;15.00;99.90;16.10;96809.00;;;;5087457;28;20214;-88
2022/07/31 00:11:25;;;;;;;4.50;3.17;;;14.90;99.90;16.30;96816.00;;;;5091483;28;20203;-88
2022/07/31 00:14:14;;;;;;;2.90;2.70;;;15.00;99.90;16.40;96798.00;;;;5088262;28;20682;-88
2022/07/31 00:17:03;;;;;;;6.50;3.00;;;15.00;99.90;16.50;96801.00;;;;5089437;28;20202;-87
2022/07/31 00:19:52;;;;;;;3.07;2.50;;;15.00;99.90;16.60;96803.00;;;;5089450;28;20259;-87
2022/07/31 00:22:41;;;;;;;4.27;3.00;;;15.10;99.90;16.50;96795.00;;;;5089440;28;20207;-88
2022/07/31 00:25:30;;;;;;;4.30;3.20;;;15.10;99.90;16.30;96803.00;;;;5085846;28;20230;-88
2022/07/31 00:28:21;;;;;;;3.47;3.17;;;15.10;99.90;16.40;96800.00;;;;5091094;28;20218;-89
2022/07/31 00:31:10;;;;;;;5.13;2.70;;;15.00;99.90;16.40;96800.00;;;;5091615;28;20207;-87
2022/07/31 00:33:59;;;;;;;3.83;3.47;;;15.00;99.90;16.30;96808.00;;;;5090223;28;20219;-89
2022/07/31 00:36:47;;;;;;;3.47;3.17;;;14.10;99.90;16.40;96806.00;;;;5089279;28;20202;-89
2022/07/31 00:39:37;;;;;;;5.27;3.10;;;15.00;99.90;16.50;96807.00;;;;5090768;28;20204;-88
2022/07/31 00:42:26;;;;;;;3.40;2.87;;;15.00;99.90;15.80;96810.00;;;;5073519;28;20199;-89
2022/07/31 00:45:16;;;;;;;2.53;2.33;;;15.00;99.90;15.90;96809.00;;;;5090109;28;20242;-87
2022/07/31 00:48:06;;;;;;;5.97;3.13;;;14.90;99.90;16.10;96802.00;;;;5083109;28;20207;-88
2022/07/31 00:50:55;;;;;;;3.40;3.10;;;14.80;99.90;16.20;96806.00;;;;5084385;28;20234;-86
2022/07/31 00:53:44;;;;;;;2.53;2.33;;;14.80;99.90;15.80;96802.00;;;;5094196;28;20540;-91
2022/07/31 00:56:33;;;;;;;6.00;3.37;;;14.80;99.90;15.40;96799.00;;;;5093771;28;20187;-87
2022/07/31 00:59:22;;;;;;;4.43;3.53;;;14.70;99.90;15.70;96791.00;;;;5093390;28;20200;-87
2022/07/31 01:02:12;;;;;;;5.70;3.50;;;14.60;99.90;15.90;96799.00;;;;5093486;28;20701;-88
2022/07/31 01:05:02;;;;;;;5.07;3.40;;;14.60;99.90;15.90;96807.00;;;;5092909;28;20225;-88
2022/07/31 01:07:51;;;;;;;5.67;3.30;;;14.60;99.90;15.80;96806.00;;;;5091884;28;20207;-87
2022/07/31 01:10:52;;;;;;;4.17;3.57;;;14.60;99.90;15.70;96806.00;;;;5089103;28;20238;-87
2022/07/31 01:13:54;;;;;;;4.77;4.07;;;14.60;99.90;15.90;96793.00;;;;5090428;28;20226;-87
2022/07/31 01:16:47;;;;;;;3.60;3.30;;;14.60;99.90;15.70;96806.00;;;;5088911;28;20217;-87
2022/07/31 01:19:40;;;;;;;3.30;2.93;;;14.60;99.90;15.40;96798.00;;;;5089664;28;20366;-86
2022/07/31 01:23:09;;;;;;;4.33;4.00;;;14.50;99.90;15.40;96795.00;;;;5093027;28;20607;-87
2022/07/31 01:26:12;;;;;;;3.43;3.23;;;14.40;99.90;15.50;96810.00;;;;5075505;28;20572;-87
2022/07/31 01:29:15;;;;;;;4.17;3.87;;;14.40;99.90;15.30;96807.00;;;;5100568;28;20195;-87
2022/07/31 01:32:09;;;;;;;5.70;3.40;;;14.30;99.90;15.30;96807.00;;;;5102148;28;20865;-88
2022/07/31 01:35:03;;;;;;;5.00;3.87;;;14.30;99.90;15.40;96803.00;;;;5104690;28;20211;-86
2022/07/31 01:37:57;;;;;;;10.97;4.27;;;14.30;99.90;15.50;96798.00;;;;5099177;28;20199;-88
2022/07/31 01:40:51;;;;;;;4.00;3.47;;;14.30;99.90;15.60;96808.00;;;;5094378;28;20670;-87
2022/07/31 01:43:42;;;;;;;3.97;3.67;;;14.20;99.90;15.60;96797.00;;;;5090440;28;20215;-88
2022/07/31 01:46:35;;;;;;;4.97;3.70;;;14.30;99.90;15.70;96796.00;;;;5093615;28;20210;-88
2022/07/31 01:49:25;;;;;;;3.30;3.10;;;14.30;99.90;15.70;96793.00;;;;5089613;28;20538;-88
2022/07/31 01:52:15;;;;;;;3.20;2.90;;;14.30;99.90;15.60;96795.00;;;;5099536;28;20576;-87
2022/07/31 01:55:05;;;;;;;4.77;4.03;;;14.30;99.90;15.70;96795.00;;;;5099004;28;20226;-88
2022/07/31 01:57:56;;;;;;;6.37;3.33;;;14.30;99.90;15.70;96792.00;;;;5100109;28;20203;-88
2022/07/31 02:00:46;;;;;;;9.87;4.10;;;14.30;99.90;15.60;96793.00;;;;5098309;28;20199;-88
2022/07/31 02:03:38;;;;;;;3.93;3.63;;;14.30;99.90;15.50;96805.00;;;;5096785;28;20203;-87
2022/07/31 02:06:28;;;;;;;5.63;3.70;;;14.30;99.90;15.80;96807.00;;;;5101267;22;20237;-86
2022/07/31 02:09:19;;;;;;;3.93;3.63;;;14.30;99.90;15.80;96805.00;;;;5094023;28;20230;-87
2022/07/31 02:12:10;;;;;;;9.03;3.87;;;14.40;99.90;15.60;96804.00;;;;5104582;28;20199;-87
2022/07/31 02:15:00;;;;;;;3.50;3.20;;;14.40;99.90;15.10;96794.00;;;;5108631;28;20206;-89
2022/07/31 02:17:50;;;;;;;4.13;3.67;;;14.20;99.90;15.70;96801.00;;;;5105445;28;20194;-86
2022/07/31 02:20:41;;;;;;;4.07;3.77;;;14.20;99.90;15.40;96801.00;;;;5118824;22;20551;-70
2022/07/31 02:23:30;;;;;;;3.80;3.47;;;14.20;99.90;15.10;96791.00;;;;5047046;28;20223;-68
2022/07/31 02:26:20;;;;;;;4.30;3.90;;;14.20;99.90;15.60;96805.00;;;;5045657;28;20298;-68
2022/07/31 02:29:11;;;;;;;5.03;3.40;;;14.20;99.90;15.40;96807.00;;;;5047925;28;20197;-68
2022/07/31 02:32:02;;;;;;;4.17;3.87;;;14.20;99.90;15.60;96812.00;;;;5022668;28;20696;-68
2022/07/31 02:34:53;;;;;;;4.50;4.07;;;14.20;99.90;15.80;96799.00;;;;5021259;28;20239;-68
2022/07/31 02:37:44;;;;;;;4.30;3.90;;;14.30;99.90;15.60;96803.00;;;;5020958;28;20201;-68
2022/07/31 02:40:34;;;;;;;4.20;3.80;;;14.30;99.90;15.50;96808.00;;;;5022247;28;20236;-68
2022/07/31 02:43:25;;;;;;;3.90;3.40;;;14.30;99.90;15.60;96799.00;;;;5017574;28;20201;-68
2022/07/31 02:46:15;;;;;;;4.17;3.80;;;14.30;99.90;15.80;96795.00;;;;5018219;28;20204;-68
2022/07/31 02:49:03;;;;;;;5.03;4.53;;;14.30;99.90;16.00;96802.00;;;;5027611;28;20193;-68
2022/07/31 02:51:54;;;;;;;3.63;3.40;;;14.40;99.90;15.90;96791.00;;;;5027758;28;20228;-68
2022/07/31 02:54:45;;;;;;;4.07;3.53;;;14.40;99.90;15.60;96785.00;;;;5023081;28;20197;-65
2022/07/31 02:57:34;;;;;;;3.63;3.43;;;14.40;99.90;15.40;96800.00;;;;5026905;28;20216;-68
2022/07/31 03:00:25;;;;;;;4.63;4.23;;;14.40;99.90;15.50;96793.00;;;;5027994;28;21069;-66
2022/07/31 03:03:14;;;;;;;5.03;4.00;;;14.40;99.90;15.60;96785.00;;;;5028558;28;20249;-67
2022/07/31 03:06:03;;;;;;;4.07;3.77;;;14.40;99.90;15.20;96777.00;;;;5018759;28;20304;-67
2022/07/31 03:08:52;;;;;;;4.13;3.73;;;14.30;99.90;15.20;96784.00;;;;5027826;28;20197;-66
2022/07/31 03:11:42;;;;;;;4.37;4.07;;;14.20;99.90;15.40;96785.00;;;;5066909;22;20244;-77
2022/07/31 03:14:33;;;;;;;10.73;4.40;;;14.20;99.90;15.70;96772.00;;;;5051302;28;20204;-72
2022/07/31 03:17:22;;;;;;;4.67;4.27;;;14.30;99.90;15.70;96780.00;;;;5056719;28;20196;-70
2022/07/31 03:20:12;;;;;;;4.13;3.40;;;14.30;99.90;15.70;96780.00;;;;5053767;28;20216;-75
2022/07/31 03:23:02;;;;;;;4.47;4.00;;;14.40;99.90;15.60;96785.00;;;;5045938;28;20208;-75
2022/07/31 03:25:52;;;;;;;7.30;3.57;;;14.40;99.90;15.70;96776.00;;;;5057439;28;20207;-76
2022/07/31 03:28:43;;;;;;;3.73;3.43;;;14.40;99.90;15.90;96787.00;;;;5046875;28;20211;-75
2022/07/31 03:31:31;;;;;;;4.10;3.80;;;14.40;99.90;16.00;96790.00;;;;5044179;28;20597;-75
2022/07/31 03:34:20;;;;;;;3.77;3.47;;;14.50;99.90;15.80;96788.00;;;;5048085;28;20682;-75
2022/07/31 03:37:10;;;;;;;6.07;3.47;;;14.50;99.90;15.80;96793.00;;;;5056005;28;20564;-75
2022/07/31 03:39:58;;;;;;;3.63;3.20;;;14.50;99.90;15.80;96790.00;;;;5062919;28;20577;-75
2022/07/31 03:42:49;;;;;;;4.83;4.23;;;14.50;99.90;15.80;96796.00;;;;5051924;28;20196;-74
2022/07/31 03:45:39;;;;;;;5.43;4.27;;;14.50;99.90;15.80;96792.00;;;;5051089;28;20214;-75
2022/07/31 03:48:29;;;;;;;5.80;4.03;;;14.50;99.90;15.60;96797.00;;;;5055104;28;20364;-73
2022/07/31 03:51:18;;;;;;;4.70;4.30;;;14.40;99.90;15.60;96806.00;;;;5049815;28;20244;-72
2022/07/31 03:54:07;;;;;;;4.37;3.97;;;14.40;99.90;15.40;96797.00;;;;5042097;28;20204;-70
2022/07/31 03:56:58;;;;;;;4.60;4.23;;;14.40;99.90;15.60;96796.00;;;;5058475;28;20216;-75
2022/07/31 03:59:47;;;;;;;5.93;3.80;;;14.30;99.90;15.20;96799.00;;;;5063714;28;20234;-73
2022/07/31 04:02:37;;;;;;;5.43;3.90;;;14.20;99.90;15.20;96797.00;;;;5061727;28;20232;-70
2022/07/31 04:05:26;;;;;;;4.63;4.23;;;14.30;99.90;15.60;96814.00;;;;5055143;28;20211;-76
2022/07/31 04:08:16;;;;;;;4.73;3.57;;;14.30;99.90;15.20;96810.00;;;;5053646;28;20216;-73
2022/07/31 04:11:04;;;;;;;4.33;4.03;;;14.30;99.90;15.50;96810.00;;;;5049611;28;20232;-66
2022/07/31 04:13:53;;;;;;;4.60;4.00;;;14.30;99.90;15.50;96811.00;;;;5047748;28;20219;-67
2022/07/31 04:16:42;;;;;;;7.17;4.03;;;14.40;99.90;15.90;96813.00;;;;5046899;28;20288;-71
2022/07/31 04:19:32;;;;;;;4.43;4.13;;;14.40;99.90;16.30;96820.00;;;;5055084;28;20197;-69
2022/07/31 04:22:21;;;;;;;4.63;3.43;;;14.60;99.90;16.10;96819.00;;;;5045279;28;20699;-76
2022/07/31 04:25:10;;;;;;;4.00;3.70;;;14.70;99.90;16.40;96834.00;;;;5049399;28;20687;-73
2022/07/31 04:28:00;;;;;;;5.20;4.63;;;14.80;99.90;16.90;96826.00;;;;5052244;28;20200;-69
2022/07/31 04:30:49;;;;;;;3.73;3.43;;;15.00;99.90;16.80;96828.00;;;;5052458;28;20612;-73
2022/07/31 04:33:37;;;;;;;4.50;3.70;;;15.10;99.90;16.40;96818.00;;;;5050794;28;20196;-74
2022/07/31 04:36:28;;;;;;;4.40;4.00;;;15.20;99.90;16.30;96825.00;;;;5052802;28;20660;-71
2022/07/31 04:39:17;;;;;;;4.30;3.77;;;15.20;99.90;16.70;96820.00;;;;5055790;28;20201;-70
2022/07/31 04:42:07;;;;;;;3.93;3.63;;;15.20;99.90;16.70;96821.00;;;;5055937;28;20224;-71
2022/07/31 04:44:58;;;;;;;3.90;3.60;;;15.30;99.90;16.70;96828.00;;;;5053960;28;20212;-70
2022/07/31 04:47:47;;;;;;;5.23;3.80;;;15.40;99.90;16.70;96828.00;;;;5056699;28;20211;-77
2022/07/31 04:50:36;;;;;;;4.40;3.77;;;15.40;99.90;17.10;96831.00;;;;5057101;28;20216;-72
2022/07/31 04:53:27;;;;;;;3.60;3.40;;;15.50;99.90;17.10;96832.00;;;;5055850;28;20575;-76
2022/07/31 04:56:40;;;;;;;4.27;3.90;;;15.60;99.90;17.10;96824.00;;;;5063285;28;20199;-71
2022/07/31 04:59:29;;;;;;;3.97;3.37;;;15.70;99.90;16.90;96820.00;;;;5045118;28;20215;-78
2022/07/31 05:02:18;;;;;;;4.33;3.97;;;15.70;99.90;17.40;96833.00;;;;5057752;28;20622;-72
2022/07/31 05:05:08;;;;;;;5.63;3.57;;;15.90;99.90;17.50;96821.00;;;;5052268;28;20212;-73
2022/07/31 05:07:56;;;;;;;4.30;3.63;;;16.00;99.90;17.70;96821.00;;;;5059188;28;20203;-71
2022/07/31 05:13:55;;;;;;;4.67;3.10;;;16.30;99.90;18.10;96828.00;;;;5051738;28;20576;-68
2022/07/31 05:16:44;;;;;;;5.23;3.90;;;16.50;99.90;18.20;96823.00;;;;5041587;28;20196;-76
2022/07/31 05:19:33;;;;;;;3.47;3.17;;;16.60;99.90;18.20;96835.00;;;;5063885;28;20213;-72
2022/07/31 05:22:21;;;;;;;4.40;2.90;;;16.80;99.90;18.60;96827.00;;;;5054036;28;20224;-72
2022/07/31 05:25:10;;;;;;;4.40;3.40;;;16.90;99.90;18.50;96829.00;;;;5052724;28;20578;-67
2022/07/31 05:28:00;;;;;;;3.00;2.80;;;17.10;99.90;18.50;96828.00;;;;5038785;28;20208;-69
2022/07/31 05:30:49;;;;;;;4.00;2.93;;;17.20;99.90;19.00;96829.00;;;;5052552;28;20631;-74
2022/07/31 05:33:38;;;;;;;3.00;2.80;;;17.30;99.90;19.20;96839.00;;;;5053103;28;20222;-71
2022/07/31 05:36:27;;;;;;;2.70;2.50;;;17.50;99.90;19.40;96843.00;;;;5051041;28;20605;-72
2022/07/31 05:39:16;;;;;;;4.70;3.10;;;17.60;99.90;19.00;96835.00;;;;5053714;28;20196;-74
2022/07/31 05:42:06;;;;;;;2.80;2.60;;;17.60;99.90;19.20;96842.00;;;;5051404;28;20734;-72
2022/07/31 05:44:56;;;;;;;4.57;2.87;;;17.70;99.90;19.50;96844.00;;;;5051559;28;20643;-72
2022/07/31 05:47:45;;;;;;;3.83;3.30;;;17.80;99.90;19.00;96852.00;;;;5051374;28;20694;-75
2022/07/31 05:50:34;;;;;;;4.23;3.50;;;17.80;99.90;18.90;96852.00;;;;5063494;28;20918;-74
2022/07/31 05:53:23;;;;;;;4.27;3.33;;;17.70;99.90;18.70;96854.00;;;;5051727;28;20581;-68
2022/07/31 05:56:11;;;;;;;4.20;2.70;;;17.70;99.90;18.90;96854.00;;;;5056863;28;20192;-77
2022/07/31 05:59:00;;;;;;;3.60;3.30;;;17.70;99.90;19.10;96851.00;;;;5059434;28;20208;-72
2022/07/31 06:01:50;;;;;;;3.83;3.43;;;17.70;99.90;19.30;96840.00;;;;5062770;28;20603;-73
2022/07/31 06:04:39;;;;;;;5.60;4.93;;;17.90;99.90;19.50;96857.00;;;;5055385;28;20219;-76
2022/07/31 06:07:28;;;;;;;3.50;3.20;;;18.00;99.90;19.40;96858.00;;;;5058362;28;20196;-77
2022/07/31 06:10:17;;;;;;;3.40;3.10;;;18.20;99.90;19.60;96864.00;;;;5054605;28;20247;-75
2022/07/31 06:13:06;;;;;;;6.00;3.30;;;18.20;99.90;19.80;96880.00;;;;5049918;28;20203;-70
2022/07/31 06:15:55;;;;;;;5.50;3.33;;;18.30;99.90;20.40;96877.00;;;;5049752;28;20204;-70
2022/07/31 06:18:45;;;;;;;3.07;2.77;;;18.40;99.90;20.60;96880.00;;;;5050426;28;20302;-71
2022/07/31 06:21:34;;;;;;;2.73;2.53;;;18.50;99.90;20.60;96873.00;;;;5038597;28;20224;-73
2022/07/31 06:24:24;;;;;;;3.23;3.03;;;18.70;99.90;20.50;96876.00;;;;5053551;28;20199;-76
2022/07/31 06:27:13;;;;;;;2.97;2.73;;;18.80;99.90;20.50;96876.00;;;;5069435;28;20200;-77
2022/07/31 06:30:02;;;;;;;4.47;2.90;;;18.90;99.90;20.40;96876.00;;;;5048085;28;20236;-69
2022/07/31 06:32:50;;;;;;;6.83;3.63;;;19.00;99.90;20.80;96871.00;;;;5050631;28;20219;-77
2022/07/31 06:35:41;;;;;;;4.63;3.37;;;19.10;99.90;21.10;96865.00;;;;5054494;28;20216;-70
2022/07/31 06:38:29;;;;;;;3.50;2.73;;;19.20;99.90;21.50;96871.00;;;;5042764;28;20209;-77
2022/07/31 06:44:21;;;;;;;3.00;2.80;;;20.10;99.90;21.80;96893.00;;;;5044630;28;20205;-72
2022/07/31 06:47:09;;;;;;;3.10;2.80;;;19.90;99.90;22.20;96874.00;;;;5045146;28;20223;-73
2022/07/31 06:49:58;;;;;;;4.30;3.03;;;20.10;99.90;22.70;96887.00;;;;5041615;28;20224;-72
2022/07/31 06:52:48;;;;;;;3.07;2.80;;;20.30;99.90;23.10;96875.00;;;;5044399;28;20692;-73
2022/07/31 06:55:37;;;;;;;3.47;3.17;;;20.60;99.90;23.40;96870.00;;;;5048503;28;20704;-77
2022/07/31 06:58:26;;;;;;;3.50;2.47;;;20.90;99.90;23.40;96866.00;;;;5045186;28;20219;-76
2022/07/31 07:01:15;;;;;;;2.93;2.73;;;21.20;99.90;23.70;96869.00;;;;5046004;28;20231;-73
2022/07/31 07:04:04;;;;;;;2.80;2.60;;;21.40;99.90;24.20;96873.00;;;;5050851;28;20235;-78
2022/07/31 07:06:53;;;;;;;2.77;2.57;;;21.80;99.90;24.20;96868.00;;;;5047178;28;20201;-77
2022/07/31 07:09:43;;;;;;;3.53;3.13;;;22.00;99.90;24.40;96871.00;;;;5047677;28;20593;-74
2022/07/31 07:12:32;;;;;;;3.90;2.20;;;22.20;99.90;24.50;96862.00;;;;5047342;28;20286;-79
2022/07/31 07:15:21;;;;;;;3.07;2.37;;;22.40;99.90;25.00;96862.00;;;;5048643;28;20553;-77
2022/07/31 07:18:10;;;;;;;2.43;2.23;;;22.60;99.90;24.70;96871.00;;;;5047126;28;20205;-72
2022/07/31 07:20:59;;;;;;;3.33;2.20;;;22.70;99.90;24.70;96872.00;;;;5049678;28;20224;-77
2022/07/31 07:23:48;;;;;;;2.37;2.00;;;22.80;99.30;25.20;96866.00;;;;5049248;28;20224;-78
2022/07/31 07:26:38;;;;;;;2.83;2.43;;;22.90;99.90;25.20;96870.00;;;;5046164;28;20204;-76
2022/07/31 07:29:26;;;;;;;2.73;2.00;;;23.10;98.70;25.30;96866.00;;;;5045227;28;20200;-71
2022/07/31 07:32:15;;;;;;;3.27;2.23;;;23.30;98.00;25.60;96855.00;;;;5047571;28;20204;-73
2022/07/31 07:35:05;;;;;;;2.50;2.30;;;23.40;97.10;25.00;96856.00;;;;5047920;28;20208;-76
2022/07/31 07:37:55;;;;;;;2.83;2.20;;;23.50;94.60;25.60;96867.00;;;;5043890;28;20212;-76
2022/07/31 07:40:44;;;;;;;3.37;2.00;;;23.80;95.20;25.70;96866.00;;;;5039184;28;20594;-67
2022/07/31 07:43:34;;;;;;;5.57;2.67;;;23.70;93.70;26.00;96871.00;;;;5044587;28;20239;-74
2022/07/31 07:46:24;;;;;;;1.87;1.70;;;23.90;93.80;26.30;96854.00;;;;5046226;28;20205;-74
2022/07/31 07:49:13;;;;;;;2.10;1.90;;;24.10;92.70;26.30;96869.00;;;;5045162;28;20205;-66
2022/07/31 07:52:02;;;;;;;2.30;2.10;;;24.20;92.70;25.80;96864.00;;;;5048396;28;20696;-76
2022/07/31 07:54:50;;;;;;;1.97;1.83;;;24.20;90.90;26.10;96865.00;;;;5046712;28;20205;-72
2022/07/31 07:57:39;;;;;;;4.77;2.27;;;24.30;91.50;26.00;96872.00;;;;5049247;28;20717;-78
2022/07/31 08:00:29;;;;;;;3.10;2.60;;;24.30;90.10;26.30;96869.00;;;;5050366;28;20628;-71
2022/07/31 08:03:18;;;;;;;9.97;3.50;;;24.40;90.60;26.20;96867.00;;;;5055072;28;20200;-79
2022/07/31 08:06:07;;;;;;;2.50;2.30;;;24.40;89.50;26.20;96866.00;;;;5052946;28;20223;-69
2022/07/31 08:08:56;;;;;;;3.50;2.27;;;24.50;89.90;26.20;96866.00;;;;5051723;28;20582;-75
2022/07/31 08:11:45;;;;;;;2.47;2.27;;;24.50;89.40;25.80;96860.00;;;;5053312;28;20726;-75
2022/07/31 08:14:34;;;;;;;3.53;1.97;;;24.50;89.50;26.30;96840.00;;;;5053232;28;20247;-78
2022/07/31 08:17:25;;;;;;;5.30;2.63;;;24.50;88.40;26.70;96841.00;;;;5049288;28;20273;-74
2022/07/31 08:20:14;;;;;;;2.30;2.07;;;24.60;87.10;26.40;96845.00;;;;5040000;28;20220;-74
2022/07/31 08:23:02;;;;;;;4.23;2.47;;;24.70;86.60;26.20;96844.00;;;;5041892;28;20201;-78
2022/07/31 08:25:52;;;;;;;4.43;2.50;;;24.70;84.60;26.50;96840.00;;;;5040962;28;20204;-69
2022/07/31 08:28:41;;;;;;;2.93;2.00;;;24.80;85.20;26.10;96848.00;;;;5048925;28;20201;-73
2022/07/31 08:31:30;;;;;;;2.40;2.20;;;24.70;83.00;26.80;96857.00;;;;5048983;28;20220;-74
2022/07/31 08:34:21;;;;;;;3.27;2.13;;;24.80;84.00;26.10;96859.00;;;;5048217;28;20235;-72
2022/07/31 08:37:10;;;;;;;3.67;2.17;;;24.70;82.60;26.50;96845.00;;;;5035451;28;20792;-71
2022/07/31 08:39:59;;;;;;;2.47;2.27;;;24.70;83.80;26.70;96854.00;;;;5041131;28;20600;-78
2022/07/31 08:42:48;;;;;;;2.67;2.30;;;24.80;85.10;26.90;96853.00;;;;5044620;28;20209;-73
2022/07/31 08:45:37;;;;;;;2.80;2.47;;;24.90;82.10;26.90;96858.00;;;;5044086;28;20216;-75
2022/07/31 08:48:31;;;;;;;2.37;2.17;;;25.10;82.80;27.20;96854.00;;;;5048467;28;20254;-71
2022/07/31 08:51:23;;;;;;;2.93;1.90;;;25.20;83.20;27.50;96869.00;;;;5047309;28;20663;-80
2022/07/31 08:54:12;;;;;;;7.77;2.30;;;25.40;80.70;26.80;96861.00;;;;5042150;28;20623;-79
2022/07/31 08:57:02;;;;;;;3.70;1.90;;;25.30;79.90;27.60;96852.00;;;;5048124;28;20201;-79
2022/07/31 08:59:53;;;;;;;2.17;1.97;;;25.40;80.60;27.20;96850.00;;;;5048295;28;20206;-74
2022/07/31 09:02:42;;;;;;;2.23;1.57;;;25.50;82.70;26.90;96849.00;;;;5048671;28;20986;-76
2022/07/31 09:05:31;;;;;;;4.97;2.00;;;25.50;77.50;26.20;96854.00;;;;5057119;28;20681;-81
2022/07/31 09:08:22;;;;;;;5.07;2.10;;;25.20;75.80;27.10;96835.00;;;;5056533;28;20200;-72
2022/07/31 09:11:14;;;;;;;3.27;2.30;;;25.30;78.10;27.50;96829.00;;;;5064418;22;20228;-86
2022/07/31 09:14:05;;;;;;;2.00;1.80;;;25.50;79.30;27.50;96834.00;;;;5061163;28;20221;-88
2022/07/31 09:16:55;;;;;;;2.87;2.67;;;25.60;76.40;26.20;96832.00;;;;5063888;28;20207;-88
2022/07/31 09:19:46;;;;;;;2.80;2.10;;;25.40;72.70;27.30;96821.00;;;;5074622;28;20255;-86
2022/07/31 09:22:35;;;;;;;4.07;3.77;;;25.50;76.40;27.20;96825.00;;;;5096745;28;20199;-84
2022/07/31 09:25:25;;;;;;;2.57;2.30;;;25.50;73.90;27.10;96826.00;;;;5090146;28;20206;-87
2022/07/31 09:28:14;;;;;;;2.93;2.00;;;25.70;71.80;28.10;96824.00;;;;5064467;28;20688;-89
2022/07/31 09:31:05;;;;;;;3.33;2.60;;;25.90;75.00;28.10;96823.00;;;;5080114;28;20209;-84
2022/07/31 09:33:54;;;;;;;2.10;1.90;;;26.20;72.70;27.80;96815.00;;;;5069562;28;20683;-91
2022/07/31 09:36:43;;;;;;;2.63;2.00;;;26.10;71.60;28.20;96818.00;;;;5097441;28;20499;-87
2022/07/31 09:39:32;;;;;;;2.13;1.80;;;26.40;72.10;29.00;96822.00;;;;5083361;28;20226;-90
2022/07/31 09:42:24;;;;;;;1.83;1.73;;;26.50;72.40;27.70;96823.00;;;;5086733;28;20206;-90
2022/07/31 09:45:21;;;;;;;3.77;2.13;;;26.50;69.20;27.00;96824.00;;;;5082091;28;20200;-87
2022/07/31 09:48:11;;;;;;;2.00;1.90;;;26.10;70.10;27.20;96811.00;;;;5086592;28;20230;-87
2022/07/31 09:51:04;;;;;;;1.77;1.57;;;26.10;68.20;26.90;96811.00;;;;5085016;28;20587;-90
2022/07/31 09:53:55;;;;;;;2.17;1.97;;;26.00;69.30;27.50;96819.00;;;;5064738;28;20256;-86
2022/07/31 09:56:45;;;;;;;2.53;1.73;;;26.00;69.50;27.30;96819.00;;;;5081204;28;20220;-85
2022/07/31 09:59:35;;;;;;;1.83;1.63;;;26.10;67.70;28.00;96809.00;;;;5084294;28;20224;-83
2022/07/31 10:02:26;;;;;;;1.77;1.67;;;26.30;69.10;27.30;96809.00;;;;5077376;28;20196;-85
2022/07/31 10:05:16;;;;;;;1.70;1.57;;;26.20;65.10;27.90;96809.00;;;;5086798;28;20208;-86
2022/07/31 10:08:06;;;;;;;1.70;1.60;;;26.40;64.90;28.70;96803.00;;;;5079090;28;20201;-87
2022/07/31 10:10:55;;;;;;;2.60;1.63;;;26.70;65.80;28.10;96808.00;;;;5088398;28;20222;-86
2022/07/31 10:13:48;;;;;;;1.73;1.60;;;26.80;63.80;28.70;96806.00;;;;5085266;28;20218;-88
2022/07/31 10:16:40;;;;;;;2.40;1.73;;;26.80;63.40;29.60;96796.00;;;;5079834;28;20207;-89
2022/07/31 10:19:35;;;;;;;1.70;1.60;;;27.10;64.70;27.70;96790.00;;;;5073572;28;20600;-87
2022/07/31 10:22:28;;;;;;;2.80;1.57;;;27.10;60.70;28.10;96780.00;;;;5084653;28;20241;-85
2022/07/31 10:25:26;;;;;;;2.50;1.53;;;27.00;61.80;28.70;96790.00;;;;5079616;28;20204;-85
2022/07/31 10:28:16;;;;;;;4.37;1.53;;;27.10;62.80;29.40;96779.00;;;;5079967;28;20226;-86
2022/07/31 10:31:05;;;;;;;1.33;1.20;;;26.80;60.70;30.00;96776.00;;;;5068966;28;20255;-88
2022/07/31 10:33:55;;;;;;;1.70;1.60;;;27.60;61.80;30.30;96771.00;;;;5075610;28;20601;-85
2022/07/31 10:36:47;;;;;;;3.47;1.47;;;28.00;61.90;29.80;96764.00;;;;5070448;28;20212;-87
2022/07/31 10:39:46;;;;;;;3.43;1.30;;;28.20;59.50;30.30;96756.00;;;;5088315;28;20230;-86
2022/07/31 10:42:44;;;;;;;2.03;1.70;;;28.40;60.00;30.10;96756.00;;;;5084360;28;20201;-88
2022/07/31 10:45:33;;;;;;;1.27;1.17;;;28.30;58.90;30.60;96769.00;;;;5069755;28;20858;-87
2022/07/31 10:48:23;;;;;;;1.60;1.37;;;28.50;59.60;30.60;96740.00;;;;5084579;28;20585;-86
2022/07/31 10:51:13;;;;;;;2.63;1.57;;;28.60;58.70;30.70;96740.00;;;;5087228;28;20203;-87
2022/07/31 10:54:04;;;;;;;1.43;1.33;;;28.80;57.40;30.30;96756.00;;;;5088316;28;21028;-89
2022/07/31 10:56:54;;;;;;;2.37;2.00;;;28.90;57.00;30.50;96755.00;;;;5078740;28;20622;-86
2022/07/31 10:59:43;;;;;;;1.40;1.30;;;29.00;58.10;29.50;96743.00;;;;5084249;28;20242;-84
2022/07/31 11:02:36;;;;;;;1.40;1.30;;;28.60;57.10;31.20;96736.00;;;;5078040;28;20229;-87
2022/07/31 11:05:26;;;;;;;2.07;1.60;;;28.70;57.80;31.70;96724.00;;;;5078404;28;20202;-86
2022/07/31 11:08:16;;;;;;;1.67;1.57;;;29.00;57.80;31.50;96741.00;;;;5080202;28;20773;-86
2022/07/31 11:11:05;;;;;;;2.10;1.30;;;29.30;57.50;31.40;96734.00;;;;5065633;28;20225;-85
2022/07/31 11:14:00;;;;;;;1.57;1.07;;;29.50;55.20;31.30;96732.00;;;;5071428;28;20205;-89
2022/07/31 11:17:50;;;;;;;1.23;1.13;;;29.50;57.60;32.20;96742.00;;;;5077937;28;20199;-88
2022/07/31 11:21:15;;;;;;;1.37;1.27;;;29.90;57.60;33.10;96736.00;;;;5086750;28;20280;-87
2022/07/31 11:24:25;;;;;;;1.40;1.30;;;30.40;59.60;32.90;96734.00;;;;5069725;28;20249;-87
2022/07/31 11:27:39;;;;;;;2.50;1.30;;;30.50;55.80;33.10;96727.00;;;;5082868;28;20676;-88
2022/07/31 11:30:30;;;;;;;1.80;1.20;;;31.20;56.80;33.10;96719.00;;;;5082617;28;20567;-88
2022/07/31 11:33:31;;;;;;;1.33;1.23;;;30.90;56.50;32.80;96761.00;;;;5083369;28;20202;-86
2022/07/31 11:36:23;;;;;;;1.30;1.20;;;31.00;54.40;29.60;96757.00;;;;5070781;28;20223;-87
2022/07/31 11:39:13;;;;;;;1.57;1.47;;;29.70;51.90;31.00;96745.00;;;;5086150;28;20223;-85
2022/07/31 11:42:05;;;;;;;2.37;1.10;;;29.50;53.60;31.70;96732.00;;;;5065299;28;20217;-88
2022/07/31 11:45:01;;;;;;;53.87;14.27;;;29.50;52.80;32.00;96708.00;;;;5081422;28;20205;-86
2022/07/31 11:47:54;;;;;;;2.77;1.20;;;29.80;56.00;31.90;96722.00;;;;5086754;28;20228;-89
2022/07/31 11:50:45;;;;;;;12.43;2.65;;;29.90;55.30;31.30;96735.00;;;;5087738;28;20697;-89
2022/07/31 11:53:41;;;;;;;2.90;1.38;;;29.90;54.60;31.50;96795.00;;;;5088767;28;20214;-86
2022/07/31 11:56:32;;;;;;;2.28;1.67;;;30.20;53.30;31.60;96716.00;;;;5086108;28;20224;-87
2022/07/31 11:59:31;;;;;;;2.38;1.40;;;29.80;54.50;31.70;96724.00;;;;5085047;28;20220;-86
2022/07/31 12:02:21;;;;;;;1.08;1.00;;;32.70;55.40;30.40;96729.00;;;;5075595;28;20201;-89
2022/07/31 12:05:12;;;;;;;1.27;1.17;;;30.00;52.60;32.20;96718.00;;;;5090396;28;20216;-88
2022/07/31 12:08:05;;;;;;;1.13;1.02;;;30.00;53.70;32.90;96747.00;;;;5096756;28;20212;-88
2022/07/31 12:10:57;;;;;;;1.23;0.95;;;30.60;56.60;29.40;96777.00;;;;5090973;28;20205;-86
2022/07/31 12:13:47;;;;;;;3.30;1.48;;;30.00;49.70;29.40;96705.00;;;;5106214;28;20205;-87
2022/07/31 12:16:41;;;;;;;1.50;1.38;;;29.20;51.70;30.20;96713.00;;;;5091113;28;20213;-88
2022/07/31 12:19:32;;;;;;;1.60;1.20;;;29.30;50.70;32.80;96723.00;;;;5096633;28;20238;-87
2022/07/31 12:22:21;;;;;;;1.30;0.88;;;30.90;54.90;33.10;96702.00;;;;5110338;28;20276;-84
2022/07/31 12:25:11;;;;;;;0.80;0.80;;;30.20;53.30;33.90;96716.00;;;;5103085;28;20193;-88
2022/07/31 12:28:00;;;;;;;1.05;0.95;;;30.70;53.20;32.70;96685.00;;;;5100594;28;20208;-88
2022/07/31 12:30:59;;;;;;;1.15;0.90;;;31.10;50.50;34.30;96711.00;;;;5105831;28;20218;-86
2022/07/31 12:33:49;;;;;;;4.97;1.20;;;31.40;52.20;33.50;96701.00;;;;5104907;28;20323;-90
2022/07/31 12:36:38;;;;;;;2.65;1.10;;;31.70;50.30;33.50;96787.00;;;;5099776;28;20206;-86
2022/07/31 12:39:27;;;;;;;1.20;1.10;;;31.70;48.60;33.50;96716.00;;;;5102776;28;20231;-88
2022/07/31 12:42:22;;;;;;;2.65;1.10;;;31.70;49.60;33.40;96706.00;;;;5092721;28;20212;-86
2022/07/31 12:45:12;;;;;;;2.25;1.00;;;31.50;50.80;33.40;96783.00;;;;5100046;28;20222;-85